Brooklyn, Indiana
Current Conditions -  °F | °C
As of 2:54 AM on Saturday 25 Oct 2014 (Local Time) from KIND Reporting Station
Scattered Clouds Scattered Clouds  
Wind Chill: 50°   Ceiling: Unl
Heat Index: 50°   Visibility: 7mi
Dew Point: 48°   Wind: 6mph
Humidity: 93%   Direction: 250°WSW
Pressure: 30"   Gusts: NA
Location:  39.54°N, 86.37°W
Report Text: KIND 250654Z 25005KT 7SM SCT090 10/09 A3000 RMK AO2 SLP157 T01000089
Loading
Personal Weather Stations






























Interactive Weather Map
Tropical Storm Tracking
New forecast layout! Learn more

10-Day Weather Forecast

Advertisements
Track Severe Weather on mobile